Time,TemperatureF,DewpointF,PressureIn,WindDirection,WindDirectionDegrees,WindSpeedMPH,WindSpeedGustMPH,Humidity,HourlyPrecipIn,Conditions,Clouds,dailyrainin,SoftwareType,DateUTC
2013-02-10 00:00:00,40.8,40.8,29.64,South,183,4.9,10.4,100,0.00,OVC,,0.00,WeatherDisplay:10.37,2013-02-10 06:00:00,
2013-02-10 00:05:00,41.0,41.0,29.66,South,185,8.3,12.3,100,0.00,OVC,,0.00,WeatherDisplay:10.37,2013-02-10 06:05:00,
2013-02-10 00:10:00,41.2,41.2,29.66,SSE,168,8.3,11.5,100,0.00,OVC,,0.00,WeatherDisplay:10.37,2013-02-10 06:10:00,
2013-02-10 00:15:00,41.4,41.4,29.66,SSE,166,7.2,10.4,100,0.00,OVC,,0.00,WeatherDisplay:10.37,2013-02-10 06:15:00,
2013-02-10 00:20:00,41.5,41.5,29.66,SSE,163,8.0,10.4,100,0.00,OVC,,0.00,WeatherDisplay:10.37,2013-02-10 06:20:00,
2013-02-10 00:25:00,41.7,41.7,29.66,ESE,117,9.2,12.7,100,0.00,OVC,,0.00,WeatherDisplay:10.37,2013-02-10 06:25:00,
2013-02-10 00:30:00,41.9,41.9,29.66,South,171,5.4,9.2,100,0.00,OVC,,0.00,WeatherDisplay:10.37,2013-02-10 06:30:00,
2013-02-10 00:35:00,42.1,42.1,29.65,SSW,195,8.3,12.7,100,0.00,OVC,,0.00,WeatherDisplay:10.37,2013-02-10 06:35:00,
2013-02-10 00:40:00,42.1,42.1,29.65,SSE,156,4.9,8.1,100,0.00,OVC,,0.00,WeatherDisplay:10.37,2013-02-10 06:40:00,
2013-02-10 00:45:00,42.3,42.3,29.65,WSW,237,7.2,12.7,100,0.00,OVC,,0.00,WeatherDisplay:10.37,2013-02-10 06:45:00,
2013-02-10 00:50:00,42.4,42.4,29.65,South,172,7.6,10.5,100,0.00,OVC,,0.00,WeatherDisplay:10.37,2013-02-10 06:50:00,
2013-02-10 00:55:00,42.6,42.6,29.65,SSE,152,9.2,11.5,100,0.00,OVC,,0.00,WeatherDisplay:10.37,2013-02-10 06:55:00,
2013-02-10 01:00:00,42.8,42.8,29.65,South,177,6.7,9.2,100,0.00,OVC,,0.00,WeatherDisplay:10.37,2013-02-10 07:00:00,
2013-02-10 01:05:00,42.8,42.8,29.63,South,174,9.2,9.2,100,0.00,OVC,,0.00,WeatherDisplay:10.37,2013-02-10 07:05:00,
2013-02-10 01:10:00,43.0,43.0,29.63,SSW,199,6.3,11.5,100,0.00,OVC,,0.00,WeatherDisplay:10.37,2013-02-10 07:10:00,
2013-02-10 01:15:00,43.2,43.2,29.63,SE,145,8.0,10.9,100,0.00,OVC,,0.00,WeatherDisplay:10.37,2013-02-10 07:15:00,
2013-02-10 01:20:00,43.2,43.2,29.63,South,179,7.6,9.2,100,0.00,OVC,,0.00,WeatherDisplay:10.37,2013-02-10 07:20:00,
2013-02-10 01:25:00,43.3,43.3,29.63,South,172,5.8,5.8,100,0.00,OVC,,0.00,WeatherDisplay:10.37,2013-02-10 07:25:00,
2013-02-10 01:30:00,43.3,43.3,29.63,SSW,208,7.6,12.7,100,0.00,OVC,,0.00,WeatherDisplay:10.37,2013-02-10 07:30:00,
2013-02-10 01:35:00,43.5,43.5,29.60,South,170,7.2,11.5,100,0.00,OVC,,0.00,WeatherDisplay:10.37,2013-02-10 07:35:00,
2013-02-10 01:40:00,43.7,43.7,29.60,SSE,148,10.1,15.0,100,0.00,OVC,,0.00,WeatherDisplay:10.37,2013-02-10 07:40:00,
2013-02-10 01:45:00,43.7,43.7,29.60,SSW,196,9.6,15.0,100,0.00,OVC,,0.00,WeatherDisplay:10.37,2013-02-10 07:45:00,
2013-02-10 01:50:00,44.1,44.1,29.60,SE,132,9.2,13.8,100,0.00,OVC,,0.00,WeatherDisplay:10.37,2013-02-10 07:50:00,
2013-02-10 01:55:00,44.2,44.2,29.60,SE,129,8.0,12.7,100,0.00,OVC,,0.00,WeatherDisplay:10.37,2013-02-10 07:55:00,
2013-02-10 02:00:00,44.4,44.4,29.60,SSE,161,9.6,15.0,100,0.00,OVC,,0.00,WeatherDisplay:10.37,2013-02-10 08:00:00,
2013-02-10 02:05:00,44.4,44.4,29.59,South,177,8.7,12.7,100,0.00,OVC,,0.00,WeatherDisplay:10.37,2013-02-10 08:05:00,
2013-02-10 02:10:00,44.4,44.4,29.59,South,172,12.3,12.3,100,0.00,OVC,,0.00,WeatherDisplay:10.37,2013-02-10 08:10:00,
2013-02-10 02:15:00,44.4,44.4,29.59,SSW,194,10.1,17.3,100,0.00,OVC,,0.00,WeatherDisplay:10.37,2013-02-10 08:15:00,
2013-02-10 02:20:00,44.4,44.4,29.59,SE,140,10.9,10.9,100,0.00,OVC,,0.00,WeatherDisplay:10.37,2013-02-10 08:20:00,
2013-02-10 02:25:00,44.4,44.4,29.59,SSE,166,12.7,16.1,100,0.00,OVC,,0.00,WeatherDisplay:10.37,2013-02-10 08:25:00,
2013-02-10 02:30:00,44.4,44.4,29.59,SE,135,10.5,12.7,100,0.00,OVC,,0.00,WeatherDisplay:10.37,2013-02-10 08:30:00,
2013-02-10 02:35:00,44.6,44.6,29.56,SE,129,14.1,15.4,100,0.00,OVC,,0.00,WeatherDisplay:10.37,2013-02-10 08:35:00,
2013-02-10 02:40:00,44.6,44.6,29.56,SE,142,11.8,17.3,100,0.00,OVC,,0.00,WeatherDisplay:10.37,2013-02-10 08:40:00,
2013-02-10 02:45:00,45.0,45.0,29.56,South,189,14.1,17.3,100,0.00,OVC,,0.00,WeatherDisplay:10.37,2013-02-10 08:45:00,
2013-02-10 02:51:00,45.1,45.1,29.56,South,185,11.8,16.3,100,0.00,OVC,,0.00,WeatherDisplay:10.37,2013-02-10 08:51:00,
2013-02-10 02:56:00,45.1,45.1,29.56,SSW,206,13.6,23.0,100,0.00,OVC,,0.00,WeatherDisplay:10.37,2013-02-10 08:56:00,
2013-02-10 03:01:00,45.1,45.1,29.56,SSW,208,10.9,15.0,100,0.00,OVC,,0.00,WeatherDisplay:10.37,2013-02-10 09:01:00,
2013-02-10 03:06:00,45.3,45.3,29.55,ESE,115,10.1,15.0,100,0.00,OVC,,0.00,WeatherDisplay:10.37,2013-02-10 09:06:00,
2013-02-10 03:11:00,45.3,45.3,29.55,South,190,11.4,12.7,100,0.00,OVC,,0.00,WeatherDisplay:10.37,2013-02-10 09:11:00,
2013-02-10 03:16:00,45.3,45.3,29.55,SSE,147,10.5,17.4,100,0.00,OVC,,0.00,WeatherDisplay:10.37,2013-02-10 09:16:00,
2013-02-10 03:21:00,45.1,45.1,29.55,SSE,155,14.1,18.4,100,0.00,OVC,,0.00,WeatherDisplay:10.37,2013-02-10 09:21:00,
2013-02-10 03:26:00,45.1,45.1,29.55,South,171,10.5,20.7,100,0.00,OVC,,0.00,WeatherDisplay:10.37,2013-02-10 09:26:00,
2013-02-10 03:31:00,45.1,45.1,29.55,SE,136,10.9,15.0,100,0.00,OVC,,0.00,WeatherDisplay:10.37,2013-02-10 09:31:00,
2013-02-10 03:36:00,45.1,45.1,29.53,SE,139,8.7,11.5,100,0.00,OVC,,0.00,WeatherDisplay:10.37,2013-02-10 09:36:00,
2013-02-10 03:41:00,45.3,45.3,29.53,SSE,163,12.3,17.3,100,0.00,OVC,,0.00,WeatherDisplay:10.37,2013-02-10 09:41:00,
2013-02-10 03:46:00,45.3,45.3,29.53,South,175,11.4,15.0,100,0.00,OVC,,0.00,WeatherDisplay:10.37,2013-02-10 09:46:00,
2013-02-10 03:51:00,45.5,45.5,29.53,SSW,193,11.4,17.3,100,0.00,OVC,,0.00,WeatherDisplay:10.37,2013-02-10 09:51:00,
2013-02-10 03:56:00,45.5,45.5,29.53,ESE,108,13.2,17.3,100,0.00,OVC,,0.00,WeatherDisplay:10.37,2013-02-10 09:56:00,
2013-02-10 04:01:00,45.5,45.5,29.53,SE,146,8.3,12.7,100,0.00,OVC,,0.00,WeatherDisplay:10.37,2013-02-10 10:01:00,
2013-02-10 04:06:00,45.7,45.7,29.50,South,181,10.5,12.7,100,0.00,OVC,,0.00,WeatherDisplay:10.37,2013-02-10 10:06:00,
2013-02-10 04:11:00,45.7,45.7,29.50,SSE,154,11.4,15.0,100,0.00,OVC,,0.00,WeatherDisplay:10.37,2013-02-10 10:11:00,
2013-02-10 04:16:00,45.7,45.7,29.50,WSW,241,12.7,19.6,100,0.00,OVC,,0.00,WeatherDisplay:10.37,2013-02-10 10:16:00,
2013-02-10 04:21:00,45.7,45.7,29.50,ESE,120,9.2,12.7,100,0.00,OVC,,0.00,WeatherDisplay:10.37,2013-02-10 10:21:00,
2013-02-10 04:26:00,45.7,45.7,29.50,South,185,8.7,18.4,100,0.00,OVC,,0.00,WeatherDisplay:10.37,2013-02-10 10:26:00,
2013-02-10 04:31:00,45.3,45.3,29.50,South,176,9.2,13.2,100,0.00,OVC,,0.00,WeatherDisplay:10.37,2013-02-10 10:31:00,
2013-02-10 04:36:00,45.3,45.3,29.50,South,170,13.6,15.0,100,0.00,OVC,,0.00,WeatherDisplay:10.37,2013-02-10 10:36:00,
2013-02-10 04:41:00,45.1,45.1,29.50,SSW,203,14.1,16.1,100,0.00,OVC,,0.00,WeatherDisplay:10.37,2013-02-10 10:41:00,
2013-02-10 04:46:00,45.0,45.0,29.50,South,185,11.8,14.5,100,0.00,OVC,,0.00,WeatherDisplay:10.37,2013-02-10 10:46:00,
2013-02-10 04:51:00,44.6,44.6,29.50,South,182,9.2,15.0,100,0.00,OVC,,0.00,WeatherDisplay:10.37,2013-02-10 10:51:00,
2013-02-10 04:56:00,44.6,44.6,29.50,SSW,208,9.6,17.3,100,0.00,OVC,,0.00,WeatherDisplay:10.37,2013-02-10 10:56:00,
2013-02-10 05:01:00,44.4,44.4,29.50,SE,141,10.5,15.0,100,0.00,OVC,,0.00,WeatherDisplay:10.37,2013-02-10 11:01:00,
2013-02-10 05:06:00,44.1,44.1,29.49,SSE,153,11.4,17.0,100,0.00,BKN,,0.00,WeatherDisplay:10.37,2013-02-10 11:06:00,
2013-02-10 05:11:00,43.9,43.9,29.49,South,191,10.5,12.7,100,0.00,BKN,,0.00,WeatherDisplay:10.37,2013-02-10 11:11:00,
2013-02-10 05:16:00,43.9,43.6,29.49,SSE,166,9.2,12.7,99,0.00,BKN,,0.00,WeatherDisplay:10.37,2013-02-10 11:16:00,
2013-02-10 05:21:00,43.7,43.4,29.49,SSW,200,11.4,17.3,99,0.00,BKN,,0.00,WeatherDisplay:10.37,2013-02-10 11:21:00,
2013-02-10 05:26:00,43.7,43.4,29.49,WSW,247,8.0,12.7,99,0.00,BKN,,0.00,WeatherDisplay:10.37,2013-02-10 11:26:00,
2013-02-10 05:31:00,43.2,42.9,29.49,SSW,202,8.0,13.8,99,0.00,BKN,,0.00,WeatherDisplay:10.37,2013-02-10 11:31:00,
2013-02-10 05:36:00,43.3,43.1,29.48,SSW,198,9.6,15.0,99,0.00,FEW,,0.00,WeatherDisplay:10.37,2013-02-10 11:36:00,
2013-02-10 05:41:00,43.3,43.1,29.48,South,183,9.2,12.7,99,0.00,FEW,,0.00,WeatherDisplay:10.37,2013-02-10 11:41:00,
2013-02-10 05:46:00,43.2,42.6,29.48,SSW,205,7.6,16.1,98,0.00,FEW,,0.00,WeatherDisplay:10.37,2013-02-10 11:46:00,
2013-02-10 05:51:00,43.0,42.2,29.49,SSE,158,10.5,12.7,97,0.00,FEW,,0.00,WeatherDisplay:10.37,2013-02-10 11:51:00,
2013-02-10 05:56:00,42.8,41.5,29.49,SSW,199,12.7,15.0,95,0.00,FEW,,0.00,WeatherDisplay:10.37,2013-02-10 11:56:00,
2013-02-10 06:01:00,42.3,38.4,29.49,SSW,202,9.6,15.4,86,0.00,FEW,,0.00,WeatherDisplay:10.37,2013-02-10 12:01:00,
2013-02-10 06:06:00,42.6,36.9,29.49,SSW,206,11.4,18.4,80,0.00,CLR,,0.00,WeatherDisplay:10.37,2013-02-10 12:06:00,
2013-02-10 06:11:00,41.9,33.5,29.49,South,180,12.7,17.4,72,0.00,CLR,,0.00,WeatherDisplay:10.37,2013-02-10 12:11:00,
2013-02-10 06:16:00,42.1,31.5,29.49,SW,222,8.3,12.7,66,0.00,CLR,,0.00,WeatherDisplay:10.37,2013-02-10 12:16:00,
2013-02-10 06:21:00,42.1,30.4,29.49,WSW,244,10.5,17.3,63,0.00,CLR,,0.00,WeatherDisplay:10.37,2013-02-10 12:21:00,
2013-02-10 06:26:00,41.9,29.4,29.49,WSW,237,10.5,17.3,61,0.00,CLR,,0.00,WeatherDisplay:10.37,2013-02-10 12:26:00,
2013-02-10 06:31:00,41.4,28.9,29.49,SW,218,10.1,15.0,61,0.00,CLR,,0.00,WeatherDisplay:10.37,2013-02-10 12:31:00,
2013-02-10 06:36:00,40.8,28.4,29.50,WSW,250,7.6,18.4,61,0.00,CLR,,0.00,WeatherDisplay:10.37,2013-02-10 12:36:00,
2013-02-10 06:41:00,40.5,28.1,29.50,SSW,193,10.9,15.0,61,0.00,CLR,,0.00,WeatherDisplay:10.37,2013-02-10 12:41:00,
2013-02-10 06:46:00,39.9,27.1,29.50,WSW,244,9.6,15.0,60,0.00,CLR,,0.00,WeatherDisplay:10.37,2013-02-10 12:46:00,
2013-02-10 06:51:00,39.6,26.4,29.50,SW,232,12.7,21.9,59,0.00,CLR,,0.00,WeatherDisplay:10.37,2013-02-10 12:51:00,
2013-02-10 06:56:00,39.0,25.9,29.50,WSW,244,9.6,12.7,59,0.00,CLR,,0.00,WeatherDisplay:10.37,2013-02-10 12:56:00,
2013-02-10 07:01:00,38.5,25.8,29.50,WSW,246,11.4,15.0,60,0.00,CLR,,0.00,WeatherDisplay:10.37,2013-02-10 13:01:00,
2013-02-10 07:06:00,37.9,25.7,29.52,SW,235,7.2,11.5,61,0.00,CLR,,0.00,WeatherDisplay:10.37,2013-02-10 13:06:00,
2013-02-10 07:11:00,37.6,25.3,29.52,West,259,10.1,14.5,61,0.00,CLR,,0.00,WeatherDisplay:10.37,2013-02-10 13:11:00,
2013-02-10 07:16:00,37.2,25.4,29.52,West,277,9.2,12.7,62,0.00,CLR,,0.00,WeatherDisplay:10.37,2013-02-10 13:16:00,
2013-02-10 07:21:00,37.0,25.6,29.52,SW,224,9.2,16.1,63,0.00,CLR,,0.00,WeatherDisplay:10.37,2013-02-10 13:21:00,
2013-02-10 07:26:00,36.7,25.3,29.52,WSW,250,10.9,15.0,63,0.00,CLR,,0.00,WeatherDisplay:10.37,2013-02-10 13:26:00,
2013-02-10 07:31:00,36.5,25.5,29.52,West,259,7.6,11.5,64,0.00,CLR,,0.00,WeatherDisplay:10.37,2013-02-10 13:31:00,
2013-02-10 07:36:00,36.1,25.5,29.53,West,259,4.9,10.5,65,0.00,CLR,,0.00,WeatherDisplay:10.37,2013-02-10 13:36:00,
2013-02-10 07:41:00,36.0,25.7,29.53,SW,216,6.7,12.7,66,0.00,CLR,,0.00,WeatherDisplay:10.37,2013-02-10 13:41:00,
2013-02-10 07:46:00,35.8,25.5,29.53,West,266,6.7,8.1,66,0.00,CLR,,0.00,WeatherDisplay:10.37,2013-02-10 13:46:00,
2013-02-10 07:51:00,36.7,26.7,29.53,WSW,253,6.7,10.4,67,0.00,CLR,,0.00,WeatherDisplay:10.37,2013-02-10 13:51:00,
2013-02-10 07:56:00,38.1,28.1,29.53,WSW,256,5.8,8.1,67,0.00,CLR,,0.00,WeatherDisplay:10.37,2013-02-10 13:56:00,
2013-02-10 08:01:00,39.7,28.9,29.53,West,272,4.9,9.2,65,0.00,CLR,,0.00,WeatherDisplay:10.37,2013-02-10 14:01:00,
2013-02-10 08:06:00,41.5,29.9,29.54,SW,229,7.6,9.2,63,0.00,CLR,,0.00,WeatherDisplay:10.37,2013-02-10 14:06:00,
2013-02-10 08:11:00,42.1,29.6,29.54,WSW,237,7.0,13.0,61,0.00,TS,TS,0.00,WeatherDisplay:10.37,2013-02-10 14:11:00,
2013-02-10 08:16:00,41.8,28.9,29.54,WSW,239,6.0,13.0,60,0.00,TS,TS,0.00,WeatherDisplay:10.37,2013-02-10 14:16:00,
2013-02-10 08:21:00,42.4,28.7,29.54,SW,235,7.0,8.0,58,0.00,TS,TS,0.00,WeatherDisplay:10.37,2013-02-10 14:21:00,
2013-02-10 08:26:00,42.3,27.7,29.54,SW,233,9.0,17.0,56,0.00,TS,TS,0.00,WeatherDisplay:10.37,2013-02-10 14:26:00,
2013-02-10 08:31:00,42.7,28.1,29.54,SW,234,10.0,16.0,56,0.00,TS,TS,0.00,WeatherDisplay:10.37,2013-02-10 14:31:00,
2013-02-10 08:36:00,44.3,28.7,29.54,SW,236,10.0,17.0,54,0.00,TS,TS,0.00,WeatherDisplay:10.37,2013-02-10 14:36:00,
2013-02-10 08:41:00,45.5,28.9,29.54,WSW,237,9.0,13.0,52,0.00,TS,TS,0.00,WeatherDisplay:10.37,2013-02-10 14:41:00,
2013-02-10 08:46:00,46.1,28.5,29.54,SW,236,10.0,23.0,50,0.00,TS,TS,0.00,WeatherDisplay:10.37,2013-02-10 14:46:00,
2013-02-10 08:51:00,47.3,29.5,29.54,WSW,251,10.0,13.0,50,0.00,TS,TS,0.00,WeatherDisplay:10.37,2013-02-10 14:51:00,
2013-02-10 08:56:00,48.2,29.9,29.54,WSW,251,9.0,16.0,49,0.00,TS,TS,0.00,WeatherDisplay:10.37,2013-02-10 14:56:00,
2013-02-10 09:01:00,48.3,29.5,29.54,WSW,248,9.0,15.0,48,0.00,TS,TS,0.00,WeatherDisplay:10.37,2013-02-10 15:01:00,
2013-02-10 09:06:00,48.3,28.4,29.54,WSW,245,16.0,23.0,46,0.00,TS,TS,0.00,WeatherDisplay:10.37,2013-02-10 15:06:00,
2013-02-10 09:11:00,48.9,30.1,29.54,WSW,245,9.0,15.0,48,0.00,TS,TS,0.00,WeatherDisplay:10.37,2013-02-10 15:11:00,
2013-02-10 09:16:00,49.3,29.4,29.54,SW,223,14.5,20.6,46,0.00,CLR,,0.00,WeatherDisplay:10.37,2013-02-10 15:16:00,
2013-02-10 09:21:00,48.8,28.9,29.54,WSW,251,13.0,15.0,46,0.00,TS,TS,0.00,WeatherDisplay:10.37,2013-02-10 15:21:00,
2013-02-10 09:26:00,48.5,27.0,29.54,West,260,13.0,26.0,43,0.00,TS,TS,0.00,WeatherDisplay:10.37,2013-02-10 15:26:00,
2013-02-10 09:31:00,48.2,26.8,29.54,West,262,12.0,15.0,43,0.00,TS,TS,0.00,WeatherDisplay:10.37,2013-02-10 15:31:00,
2013-02-10 09:36:00,48.3,26.8,29.55,West,262,12.0,18.0,43,0.00,TS,TS,0.00,WeatherDisplay:10.37,2013-02-10 15:36:00,
2013-02-10 09:41:00,47.8,26.4,29.55,West,268,13.0,21.0,43,0.00,TS,TS,0.00,WeatherDisplay:10.37,2013-02-10 15:41:00,
2013-02-10 09:46:00,48.5,27.0,29.55,West,266,14.0,17.0,43,0.00,TS,TS,0.00,WeatherDisplay:10.37,2013-02-10 15:46:00,
2013-02-10 09:51:00,49.1,27.5,29.55,West,268,12.7,13.2,43,0.00,CLR,,0.00,WeatherDisplay:10.37,2013-02-10 15:51:00,
2013-02-10 09:56:00,49.1,27.5,29.55,WNW,283,11.8,16.1,43,0.00,CLR,,0.00,WeatherDisplay:10.37,2013-02-10 15:56:00,
2013-02-10 10:01:00,48.6,27.1,29.55,WNW,297,12.3,19.6,43,0.00,CLR,,0.00,WeatherDisplay:10.37,2013-02-10 16:01:00,
2013-02-10 10:06:00,49.6,28.0,29.57,West,281,8.7,17.3,43,0.00,CLR,,0.00,WeatherDisplay:10.37,2013-02-10 16:06:00,
2013-02-10 10:11:00,49.6,28.0,29.57,WSW,257,8.3,12.7,43,0.00,CLR,,0.00,WeatherDisplay:10.37,2013-02-10 16:11:00,
2013-02-10 10:16:00,49.6,26.9,29.57,West,266,11.4,15.0,41,0.00,CLR,,0.00,WeatherDisplay:10.37,2013-02-10 16:16:00,
2013-02-10 10:21:00,50.0,27.2,29.57,West,268,10.5,16.1,41,0.00,CLR,,0.00,WeatherDisplay:10.37,2013-02-10 16:21:00,
2013-02-10 10:26:00,48.9,26.2,29.57,West,263,11.8,19.6,41,0.00,CLR,,0.00,WeatherDisplay:10.37,2013-02-10 16:26:00,
2013-02-10 10:31:00,49.5,26.7,29.57,WNW,283,15.4,24.2,41,0.00,CLR,,0.00,WeatherDisplay:10.37,2013-02-10 16:31:00,
2013-02-10 10:36:00,49.3,26.5,29.57,SW,227,16.3,21.9,41,0.00,CLR,,0.00,WeatherDisplay:10.37,2013-02-10 16:36:00,
2013-02-10 10:41:00,48.9,26.2,29.57,SW,234,13.2,17.3,41,0.00,CLR,,0.00,WeatherDisplay:10.37,2013-02-10 16:41:00,
2013-02-10 10:46:00,48.9,26.2,29.57,WSW,252,10.9,23.0,41,0.00,CLR,,0.00,WeatherDisplay:10.37,2013-02-10 16:46:00,
2013-02-10 10:51:00,48.9,26.2,29.57,WSW,239,10.9,15.0,41,0.00,CLR,,0.00,WeatherDisplay:10.37,2013-02-10 16:51:00,
2013-02-10 10:56:00,48.6,25.9,29.57,WNW,292,11.4,19.6,41,0.00,CLR,,0.00,WeatherDisplay:10.37,2013-02-10 16:56:00,
2013-02-10 11:01:00,48.6,27.1,29.59,West,259,9.2,18.4,43,0.00,CLR,,0.00,WeatherDisplay:10.37,2013-02-10 17:01:00,
2013-02-10 11:06:00,48.7,27.2,29.59,West,259,11.4,16.1,43,0.00,CLR,,0.00,WeatherDisplay:10.37,2013-02-10 17:06:00,
2013-02-10 11:11:00,48.2,26.7,29.59,WNW,283,12.7,21.9,43,0.00,CLR,,0.00,WeatherDisplay:10.37,2013-02-10 17:11:00,
2013-02-10 11:16:00,47.8,26.4,29.59,SW,235,15.0,23.0,43,0.00,CLR,,0.00,WeatherDisplay:10.37,2013-02-10 17:16:00,
2013-02-10 11:21:00,47.8,26.4,29.59,WNW,284,12.3,18.4,43,0.00,CLR,,0.00,WeatherDisplay:10.37,2013-02-10 17:21:00,
2013-02-10 11:26:00,47.8,26.4,29.59,NW,306,11.4,23.0,43,0.00,CLR,,0.00,WeatherDisplay:10.37,2013-02-10 17:26:00,
2013-02-10 11:31:00,47.7,26.2,29.60,WNW,294,11.8,23.0,43,0.00,CLR,,0.00,WeatherDisplay:10.37,2013-02-10 17:31:00,
2013-02-10 11:36:00,48.2,26.7,29.60,WSW,250,12.3,23.0,43,0.00,CLR,,0.00,WeatherDisplay:10.37,2013-02-10 17:36:00,
2013-02-10 11:41:00,48.4,26.9,29.60,West,268,13.6,19.6,43,0.00,CLR,,0.00,WeatherDisplay:10.37,2013-02-10 17:41:00,
2013-02-10 11:46:00,48.9,27.4,29.60,WSW,248,10.5,19.6,43,0.00,CLR,,0.00,WeatherDisplay:10.37,2013-02-10 17:46:00,
2013-02-10 11:51:00,49.3,27.7,29.60,WNW,282,12.7,17.4,43,0.00,CLR,,0.00,WeatherDisplay:10.37,2013-02-10 17:51:00,
2013-02-10 11:56:00,49.3,27.7,29.60,SW,230,16.3,25.3,43,0.00,CLR,,0.00,WeatherDisplay:10.37,2013-02-10 17:56:00,
2013-02-10 12:01:00,49.8,28.2,29.61,South,181,15.4,23.0,43,0.00,CLR,,0.00,WeatherDisplay:10.37,2013-02-10 18:01:00,
2013-02-10 12:06:00,49.6,28.0,29.61,SW,231,13.6,25.0,43,0.00,CLR,,0.00,WeatherDisplay:10.37,2013-02-10 18:06:00,
2013-02-10 12:11:00,49.5,27.9,29.61,WSW,240,11.8,21.9,43,0.00,CLR,,0.00,WeatherDisplay:10.37,2013-02-10 18:11:00,
2013-02-10 12:16:00,49.1,26.4,29.61,West,278,13.6,21.9,41,0.00,CLR,,0.00,WeatherDisplay:10.37,2013-02-10 18:16:00,
2013-02-10 12:21:00,49.8,28.2,29.61,SW,232,9.6,15.0,43,0.00,CLR,,0.00,WeatherDisplay:10.37,2013-02-10 18:21:00,
2013-02-10 12:26:00,50.5,28.8,29.61,WSW,255,8.3,12.7,43,0.00,CLR,,0.00,WeatherDisplay:10.37,2013-02-10 18:26:00,
2013-02-10 12:31:00,50.7,27.8,29.60,SW,224,11.8,17.3,41,0.00,CLR,,0.00,WeatherDisplay:10.37,2013-02-10 18:31:00,
2013-02-10 12:36:00,50.7,29.0,29.60,West,269,9.2,11.5,43,0.00,CLR,,0.00,WeatherDisplay:10.37,2013-02-10 18:36:00,
2013-02-10 12:41:00,50.5,27.7,29.60,West,263,14.5,24.2,41,0.00,CLR,,0.00,WeatherDisplay:10.37,2013-02-10 18:41:00,
2013-02-10 12:46:00,50.0,27.2,29.60,West,268,11.4,15.0,41,0.00,CLR,,0.00,WeatherDisplay:10.37,2013-02-10 18:46:00,
2013-02-10 12:51:00,50.0,27.2,29.60,SW,233,12.3,17.3,41,0.00,CLR,,0.00,WeatherDisplay:10.37,2013-02-10 18:51:00,
2013-02-10 12:56:00,50.7,27.8,29.60,WNW,292,12.3,12.7,41,0.00,CLR,,0.00,WeatherDisplay:10.37,2013-02-10 18:56:00,
2013-02-10 13:01:00,50.7,27.8,29.61,SW,234,10.1,21.9,41,0.00,CLR,,0.00,WeatherDisplay:10.37,2013-02-10 19:01:00,
2013-02-10 13:06:00,50.9,27.4,29.61,West,267,14.5,17.3,40,0.00,CLR,,0.00,WeatherDisplay:10.37,2013-02-10 19:06:00,
2013-02-10 13:11:00,51.1,27.6,29.61,WSW,255,15.4,19.6,40,0.00,CLR,,0.00,WeatherDisplay:10.37,2013-02-10 19:11:00,
2013-02-10 13:16:00,51.3,27.7,29.61,North,1,12.7,18.4,40,0.00,CLR,,0.00,WeatherDisplay:10.37,2013-02-10 19:16:00,
2013-02-10 13:22:00,52.0,28.4,29.61,West,268,14.1,27.6,40,0.00,CLR,,0.00,WeatherDisplay:10.37,2013-02-10 19:22:00,
2013-02-10 13:27:00,51.4,27.9,29.61,West,274,13.2,20.6,40,0.00,CLR,,0.00,WeatherDisplay:10.37,2013-02-10 19:27:00,
2013-02-10 13:32:00,51.8,28.2,29.62,West,274,14.1,19.6,40,0.00,CLR,,0.00,WeatherDisplay:10.37,2013-02-10 19:32:00,
2013-02-10 13:37:00,51.1,27.6,29.62,WSW,241,12.3,25.0,40,0.00,CLR,,0.00,WeatherDisplay:10.37,2013-02-10 19:37:00,
2013-02-10 13:42:00,50.4,27.5,29.62,NW,311,13.6,16.1,41,0.00,CLR,,0.00,WeatherDisplay:10.37,2013-02-10 19:42:00,
2013-02-10 13:47:00,49.8,27.0,29.62,West,279,10.1,12.7,41,0.00,CLR,,0.00,WeatherDisplay:10.37,2013-02-10 19:47:00,
2013-02-10 13:52:00,51.6,28.1,29.62,WNW,292,11.8,15.0,40,0.00,CLR,,0.00,WeatherDisplay:10.37,2013-02-10 19:52:00,
2013-02-10 13:57:00,53.6,29.8,29.62,West,260,12.7,17.3,40,0.00,CLR,,0.00,WeatherDisplay:10.37,2013-02-10 19:57:00,
2013-02-10 14:02:00,51.3,27.7,29.63,WSW,257,13.6,20.7,40,0.00,CLR,,0.00,WeatherDisplay:10.37,2013-02-10 20:02:00,
2013-02-10 14:07:00,50.2,27.4,29.63,WSW,258,12.7,13.6,41,0.00,CLR,,0.00,WeatherDisplay:10.37,2013-02-10 20:07:00,
2013-02-10 14:12:00,50.2,27.4,29.63,West,275,12.7,21.9,41,0.00,CLR,,0.00,WeatherDisplay:10.37,2013-02-10 20:12:00,
2013-02-10 14:17:00,51.1,27.6,29.63,West,262,12.3,14.1,40,0.00,SCT,,0.00,WeatherDisplay:10.37,2013-02-10 20:17:00,
2013-02-10 14:22:00,50.4,27.5,29.63,NW,310,15.9,24.2,41,0.00,SCT,,0.00,WeatherDisplay:10.37,2013-02-10 20:22:00,
2013-02-10 14:27:00,50.0,27.2,29.63,WNW,285,12.7,17.3,41,0.00,SCT,,0.00,WeatherDisplay:10.37,2013-02-10 20:27:00,
2013-02-10 14:32:00,49.8,27.0,29.65,West,277,16.8,19.7,41,0.00,BKN,,0.00,WeatherDisplay:10.37,2013-02-10 20:32:00,
2013-02-10 14:37:00,49.5,26.7,29.65,NNW,337,13.6,19.6,41,0.00,BKN,,0.00,WeatherDisplay:10.37,2013-02-10 20:37:00,
2013-02-10 14:42:00,48.2,25.6,29.65,West,272,15.0,22.3,41,0.00,BKN,,0.00,WeatherDisplay:10.37,2013-02-10 20:42:00,
2013-02-10 14:47:00,47.1,24.6,29.66,West,277,15.0,23.7,41,0.00,OVC,,0.00,WeatherDisplay:10.37,2013-02-10 20:47:00,
2013-02-10 14:52:00,47.3,24.8,29.66,West,272,10.9,17.3,41,0.00,OVC,,0.00,WeatherDisplay:10.37,2013-02-10 20:52:00,
2013-02-10 14:57:00,47.7,25.1,29.66,NW,314,17.0,19.6,41,0.00,OVC,,0.00,WeatherDisplay:10.37,2013-02-10 20:57:00,
2013-02-10 15:02:00,46.4,23.9,29.68,WNW,297,11.4,26.1,41,0.00,OVC,,0.00,WeatherDisplay:10.37,2013-02-10 21:02:00,
2013-02-10 15:07:00,46.2,23.8,29.68,WNW,301,13.2,17.3,41,0.00,OVC,,0.00,WeatherDisplay:10.37,2013-02-10 21:07:00,
2013-02-10 15:12:00,45.9,23.5,29.68,WNW,298,11.8,17.3,41,0.00,OVC,,0.00,WeatherDisplay:10.37,2013-02-10 21:12:00,
2013-02-10 15:17:00,45.7,23.3,29.68,WNW,287,15.4,21.9,41,0.00,OVC,,0.00,WeatherDisplay:10.37,2013-02-10 21:17:00,
2013-02-10 15:22:00,44.4,22.7,29.68,WNW,287,18.3,25.3,42,0.00,OVC,,0.00,WeatherDisplay:10.37,2013-02-10 21:22:00,
2013-02-10 15:27:00,44.6,22.9,29.68,SW,217,15.4,23.0,42,0.00,OVC,,0.00,WeatherDisplay:10.37,2013-02-10 21:27:00,
2013-02-10 15:32:00,44.1,22.4,29.69,WNW,303,14.5,23.2,42,0.00,OVC,,0.00,WeatherDisplay:10.37,2013-02-10 21:32:00,
2013-02-10 15:37:00,43.5,21.9,29.69,West,274,14.5,19.7,42,0.00,OVC,,0.00,WeatherDisplay:10.37,2013-02-10 21:37:00,
2013-02-10 15:42:00,43.3,21.8,29.69,West,270,11.8,19.6,42,0.00,OVC,,0.00,WeatherDisplay:10.37,2013-02-10 21:42:00,
2013-02-10 15:47:00,43.2,21.6,29.71,West,260,15.4,25.3,42,0.00,OVC,,0.00,WeatherDisplay:10.37,2013-02-10 21:47:00,
2013-02-10 15:52:00,43.3,21.8,29.71,West,272,10.9,16.1,42,0.00,OVC,,0.00,WeatherDisplay:10.37,2013-02-10 21:52:00,
2013-02-10 15:57:00,43.5,21.9,29.71,West,281,10.1,25.0,42,0.00,OVC,,0.00,WeatherDisplay:10.37,2013-02-10 21:57:00,
2013-02-10 16:02:00,42.8,21.3,29.71,WNW,290,17.0,25.3,42,0.00,OVC,,0.00,WeatherDisplay:10.37,2013-02-10 22:02:00,
2013-02-10 16:07:00,42.4,22.6,29.71,West,272,15.4,25.3,45,0.00,OVC,,0.00,WeatherDisplay:10.37,2013-02-10 22:07:00,
2013-02-10 16:12:00,42.8,22.9,29.71,NW,313,12.7,17.4,45,0.00,OVC,,0.00,WeatherDisplay:10.37,2013-02-10 22:12:00,
2013-02-10 16:17:00,42.6,22.7,29.73,WNW,289,18.8,25.3,45,0.00,OVC,,0.00,WeatherDisplay:10.37,2013-02-10 22:17:00,
2013-02-10 16:22:00,42.6,22.7,29.73,West,274,16.3,25.3,45,0.00,OVC,,0.00,WeatherDisplay:10.37,2013-02-10 22:22:00,
2013-02-10 16:27:00,42.4,22.6,29.73,NW,308,13.2,20.7,45,0.00,OVC,,0.00,WeatherDisplay:10.37,2013-02-10 22:27:00,
2013-02-10 16:32:00,42.3,22.4,29.75,WNW,302,15.9,24.6,45,0.00,OVC,,0.00,WeatherDisplay:10.37,2013-02-10 22:32:00,
2013-02-10 16:37:00,42.8,22.9,29.75,NW,310,16.3,21.9,45,0.00,OVC,,0.00,WeatherDisplay:10.37,2013-02-10 22:37:00,
2013-02-10 16:42:00,42.4,22.6,29.75,NW,304,15.9,18.4,45,0.00,OVC,,0.00,WeatherDisplay:10.37,2013-02-10 22:42:00,
2013-02-10 16:47:00,43.2,23.2,29.77,NW,307,12.7,16.1,45,0.00,OVC,,0.00,WeatherDisplay:10.37,2013-02-10 22:47:00,
2013-02-10 16:52:00,43.3,23.4,29.77,NW,312,16.8,24.2,45,0.00,OVC,,0.00,WeatherDisplay:10.37,2013-02-10 22:52:00,
2013-02-10 16:57:00,43.2,23.2,29.77,West,269,21.0,31.1,45,0.00,OVC,,0.00,WeatherDisplay:10.37,2013-02-10 22:57:00,
2013-02-10 17:02:00,42.3,22.4,29.78,West,274,20.6,26.5,45,0.00,OVC,,0.00,WeatherDisplay:10.37,2013-02-10 23:02:00,
2013-02-10 17:07:00,41.9,22.1,29.78,WNW,301,14.5,17.3,45,0.00,OVC,,0.00,WeatherDisplay:10.37,2013-02-10 23:07:00,
2013-02-10 17:12:00,42.1,22.2,29.78,WNW,297,12.3,18.3,45,0.00,OVC,,0.00,WeatherDisplay:10.37,2013-02-10 23:12:00,
2013-02-10 17:17:00,41.9,22.1,29.78,NW,318,13.6,15.0,45,0.00,OVC,,0.00,WeatherDisplay:10.37,2013-02-10 23:17:00,
2013-02-10 17:22:00,41.7,21.9,29.78,West,281,14.5,23.0,45,0.00,OVC,,0.00,WeatherDisplay:10.37,2013-02-10 23:22:00,
2013-02-10 17:27:00,41.5,21.8,29.78,WNW,296,15.9,22.8,45,0.00,OVC,,0.00,WeatherDisplay:10.37,2013-02-10 23:27:00,
2013-02-10 17:32:00,41.4,21.6,29.80,WNW,292,12.3,23.0,45,0.00,BKN,,0.00,WeatherDisplay:10.37,2013-02-10 23:32:00,
2013-02-10 17:37:00,41.0,21.3,29.80,WNW,291,11.8,17.3,45,0.00,BKN,,0.00,WeatherDisplay:10.37,2013-02-10 23:37:00,
2013-02-10 17:42:00,41.0,21.3,29.80,WNW,294,9.2,17.3,45,0.00,BKN,,0.00,WeatherDisplay:10.37,2013-02-10 23:42:00,
2013-02-10 17:47:00,41.0,21.3,29.80,WNW,294,11.8,21.9,45,0.00,BKN,,0.00,WeatherDisplay:10.37,2013-02-10 23:47:00,
2013-02-10 17:52:00,41.2,23.0,29.80,NW,305,8.0,12.7,48,0.00,BKN,,0.00,WeatherDisplay:10.37,2013-02-10 23:52:00,
2013-02-10 17:57:00,41.2,23.0,29.80,WNW,286,11.4,15.0,48,0.00,BKN,,0.00,WeatherDisplay:10.37,2013-02-10 23:57:00,
2013-02-10 18:02:00,41.4,23.1,29.83,WNW,289,12.3,16.1,48,0.00,BKN,,0.00,WeatherDisplay:10.37,2013-02-11 00:02:00,
2013-02-10 18:07:00,41.4,23.1,29.83,WNW,291,19.2,28.8,48,0.00,BKN,,0.00,WeatherDisplay:10.37,2013-02-11 00:07:00,
2013-02-10 18:12:00,41.0,22.8,29.83,WNW,284,21.0,27.6,48,0.00,BKN,,0.00,WeatherDisplay:10.37,2013-02-11 00:12:00,
2013-02-10 18:17:00,40.5,22.3,29.83,NW,321,10.9,20.7,48,0.00,BKN,,0.00,WeatherDisplay:10.37,2013-02-11 00:17:00,
2013-02-10 18:22:00,39.7,21.6,29.83,WNW,299,10.9,13.2,48,0.00,BKN,,0.00,WeatherDisplay:10.37,2013-02-11 00:22:00,
2013-02-10 18:27:00,39.4,21.3,29.83,NW,314,10.1,16.3,48,0.00,BKN,,0.00,WeatherDisplay:10.37,2013-02-11 00:27:00,
2013-02-10 18:32:00,39.0,21.9,29.83,WNW,300,8.7,15.0,50,0.00,BKN,,0.00,WeatherDisplay:10.37,2013-02-11 00:32:00,
2013-02-10 18:37:00,38.8,21.8,29.83,WNW,299,11.4,12.7,50,0.00,BKN,,0.00,WeatherDisplay:10.37,2013-02-11 00:37:00,
2013-02-10 18:42:00,38.7,22.1,29.83,WNW,292,8.3,12.7,51,0.00,BKN,,0.00,WeatherDisplay:10.37,2013-02-11 00:42:00,
2013-02-10 18:47:00,38.5,21.9,29.87,NW,305,8.7,11.5,51,0.00,FEW,,0.00,WeatherDisplay:10.37,2013-02-11 00:47:00,
2013-02-10 18:52:00,38.3,21.7,29.87,WNW,294,9.6,12.7,51,0.00,FEW,,0.00,WeatherDisplay:10.37,2013-02-11 00:52:00,
2013-02-10 18:57:00,38.3,21.7,29.87,WNW,296,8.3,10.4,51,0.00,FEW,,0.00,WeatherDisplay:10.37,2013-02-11 00:57:00,
2013-02-10 19:02:00,37.9,21.9,29.89,WNW,298,8.3,10.5,52,0.00,CLR,,0.00,WeatherDisplay:10.37,2013-02-11 01:02:00,
2013-02-10 19:07:00,37.8,21.7,29.89,WNW,294,7.2,12.7,52,0.00,CLR,,0.00,WeatherDisplay:10.37,2013-02-11 01:07:00,
2013-02-10 19:12:00,37.8,21.7,29.89,WNW,287,7.2,10.4,52,0.00,CLR,,0.00,WeatherDisplay:10.37,2013-02-11 01:12:00,
2013-02-10 19:17:00,37.6,21.5,29.89,WNW,300,8.3,10.4,52,0.00,CLR,,0.00,WeatherDisplay:10.37,2013-02-11 01:17:00,
2013-02-10 19:22:00,37.2,21.6,29.89,WNW,291,5.8,9.2,53,0.00,CLR,,0.00,WeatherDisplay:10.37,2013-02-11 01:22:00,
2013-02-10 19:27:00,37.2,21.6,29.89,WNW,298,7.6,11.5,53,0.00,CLR,,0.00,WeatherDisplay:10.37,2013-02-11 01:27:00,
2013-02-10 19:32:00,36.9,21.3,29.90,West,267,6.3,8.1,53,0.00,CLR,,0.00,WeatherDisplay:10.37,2013-02-11 01:32:00,
2013-02-10 19:37:00,36.5,21.0,29.90,West,270,3.6,5.8,53,0.00,CLR,,0.00,WeatherDisplay:10.37,2013-02-11 01:37:00,
2013-02-10 19:42:00,36.1,21.1,29.90,WNW,285,0.0,4.9,54,0.00,CLR,,0.00,WeatherDisplay:10.37,2013-02-11 01:42:00,
2013-02-10 19:47:00,35.4,20.4,29.90,WSW,252,3.1,4.6,54,0.00,CLR,,0.00,WeatherDisplay:10.37,2013-02-11 01:47:00,
2013-02-10 19:52:00,35.1,20.1,29.90,WNW,294,2.7,3.5,54,0.00,CLR,,0.00,WeatherDisplay:10.37,2013-02-11 01:52:00,
2013-02-10 19:57:00,34.9,19.9,29.90,West,262,0.0,3.5,54,0.00,CLR,,0.00,WeatherDisplay:10.37,2013-02-11 01:57:00,
2013-02-10 20:02:00,34.5,20.0,29.92,West,268,0.0,2.3,55,0.00,CLR,,0.00,WeatherDisplay:10.37,2013-02-11 02:02:00,
2013-02-10 20:07:00,34.0,19.5,29.92,WSW,245,0.0,3.5,55,0.00,CLR,,0.00,WeatherDisplay:10.37,2013-02-11 02:07:00,
2013-02-10 20:12:00,33.6,19.6,29.92,SW,235,0.0,4.0,56,0.00,CLR,,0.00,WeatherDisplay:10.37,2013-02-11 02:12:00,
2013-02-10 20:17:00,33.4,19.4,29.92,SW,232,0.0,0.0,56,0.00,CLR,,0.00,WeatherDisplay:10.37,2013-02-11 02:17:00,
2013-02-10 20:22:00,33.1,19.1,29.92,WSW,256,2.2,3.5,56,0.00,CLR,,0.00,WeatherDisplay:10.37,2013-02-11 02:22:00,
2013-02-10 20:27:00,33.3,19.7,29.92,WSW,257,0.0,0.0,57,0.00,CLR,,0.00,WeatherDisplay:10.37,2013-02-11 02:27:00,
2013-02-10 20:32:00,33.3,20.1,29.94,NNW,345,0.0,0.0,58,0.00,CLR,,0.00,WeatherDisplay:10.37,2013-02-11 02:32:00,
2013-02-10 20:37:00,33.1,19.9,29.94,North,8,2.2,3.5,58,0.00,CLR,,0.00,WeatherDisplay:10.37,2013-02-11 02:37:00,
2013-02-10 20:42:00,33.1,20.3,29.94,NNW,332,2.2,3.5,59,0.00,CLR,,0.00,WeatherDisplay:10.37,2013-02-11 02:42:00,
2013-02-10 20:47:00,33.1,20.7,29.94,WNW,299,2.7,4.6,60,0.00,CLR,,0.00,WeatherDisplay:10.37,2013-02-11 02:47:00,
2013-02-10 20:52:00,33.1,21.1,29.94,WSW,256,3.1,5.8,61,0.00,CLR,,0.00,WeatherDisplay:10.37,2013-02-11 02:52:00,
2013-02-10 20:57:00,33.1,21.5,29.94,WNW,297,4.0,5.8,62,0.00,CLR,,0.00,WeatherDisplay:10.37,2013-02-11 02:57:00,
2013-02-10 21:02:00,33.6,22.0,29.96,West,277,3.1,5.8,62,0.00,CLR,,0.00,WeatherDisplay:10.37,2013-02-11 03:02:00,
2013-02-10 21:07:00,33.8,22.1,29.96,West,259,2.7,4.9,62,0.00,CLR,,0.00,WeatherDisplay:10.37,2013-02-11 03:07:00,
2013-02-10 21:12:00,33.4,21.8,29.96,West,278,2.7,3.5,62,0.00,CLR,,0.00,WeatherDisplay:10.37,2013-02-11 03:12:00,
2013-02-10 21:17:00,33.1,21.5,29.96,West,273,2.7,3.6,62,0.00,CLR,,0.00,WeatherDisplay:10.37,2013-02-11 03:17:00,
2013-02-10 21:22:00,32.9,21.3,29.96,West,262,2.2,5.8,62,0.00,CLR,,0.00,WeatherDisplay:10.37,2013-02-11 03:22:00,
2013-02-10 21:27:00,32.5,21.0,29.96,SW,230,2.2,4.6,62,0.00,CLR,,0.00,WeatherDisplay:10.37,2013-02-11 03:27:00,
2013-02-10 21:32:00,32.5,21.0,29.97,West,263,2.7,4.6,62,0.00,CLR,,0.00,WeatherDisplay:10.37,2013-02-11 03:32:00,
2013-02-10 21:37:00,32.5,21.0,29.97,West,274,3.1,4.6,62,0.00,CLR,,0.00,WeatherDisplay:10.37,2013-02-11 03:37:00,
2013-02-10 21:42:00,32.4,20.8,29.97,West,272,3.1,3.5,62,0.00,CLR,,0.00,WeatherDisplay:10.37,2013-02-11 03:42:00,
2013-02-10 21:47:00,32.4,21.2,29.97,West,272,4.0,4.6,63,0.00,CLR,,0.00,WeatherDisplay:10.37,2013-02-11 03:47:00,
2013-02-10 21:52:00,32.5,21.3,29.97,West,263,4.5,8.1,63,0.00,CLR,,0.00,WeatherDisplay:10.37,2013-02-11 03:52:00,
2013-02-10 21:57:00,32.7,21.5,29.97,WSW,258,4.5,6.9,63,0.00,CLR,,0.00,WeatherDisplay:10.37,2013-02-11 03:57:00,
2013-02-10 22:02:00,33.1,21.8,29.99,NW,305,6.7,8.1,63,0.00,CLR,,0.00,WeatherDisplay:10.37,2013-02-11 04:02:00,
2013-02-10 22:07:00,33.3,21.6,29.99,NW,321,4.9,8.1,62,0.00,CLR,,0.00,WeatherDisplay:10.37,2013-02-11 04:07:00,
2013-02-10 22:12:00,33.6,22.0,29.99,WNW,301,4.5,5.8,62,0.00,CLR,,0.00,WeatherDisplay:10.37,2013-02-11 04:12:00,
2013-02-10 22:17:00,33.6,22.0,29.99,WNW,288,4.0,8.1,62,0.00,CLR,,0.00,WeatherDisplay:10.37,2013-02-11 04:17:00,
2013-02-10 22:22:00,33.8,22.1,29.99,West,277,4.9,5.8,62,0.00,CLR,,0.00,WeatherDisplay:10.37,2013-02-11 04:22:00,
2013-02-10 22:27:00,33.8,21.8,29.99,WNW,301,4.5,8.1,61,0.00,CLR,,0.00,WeatherDisplay:10.37,2013-02-11 04:27:00,
2013-02-10 22:32:00,34.2,21.7,30.00,WNW,294,4.9,8.1,60,0.00,CLR,,0.00,WeatherDisplay:10.37,2013-02-11 04:32:00,
2013-02-10 22:37:00,34.2,21.3,30.00,NW,305,4.9,8.1,59,0.00,CLR,,0.00,WeatherDisplay:10.37,2013-02-11 04:37:00,
2013-02-10 22:42:00,34.0,21.1,30.00,NW,304,4.0,5.8,59,0.00,CLR,,0.00,WeatherDisplay:10.37,2013-02-11 04:42:00,
2013-02-10 22:47:00,33.8,21.0,30.01,WNW,302,3.6,8.1,59,0.00,CLR,,0.00,WeatherDisplay:10.37,2013-02-11 04:47:00,
2013-02-10 22:52:00,33.6,21.2,30.01,West,265,4.9,8.1,60,0.00,CLR,,0.00,WeatherDisplay:10.37,2013-02-11 04:52:00,
2013-02-10 22:57:00,33.4,20.6,30.01,WNW,284,4.0,5.8,59,0.00,CLR,,0.00,WeatherDisplay:10.37,2013-02-11 04:57:00,
2013-02-10 23:00:00,33.1,20.3,30.01,WSW,251,2.7,3.5,59,0.00,CLR,,0.00,WeatherDisplay:10.37,2013-02-11 05:00:00,
2013-02-10 23:02:00,32.9,20.1,30.01,WNW,299,3.1,4.6,59,0.00,CLR,,0.00,WeatherDisplay:10.37,2013-02-11 05:02:00,
2013-02-10 23:07:00,32.4,20.0,30.01,West,263,2.7,3.5,60,0.00,CLR,,0.00,WeatherDisplay:10.37,2013-02-11 05:07:00,
2013-02-10 23:12:00,32.2,20.2,30.01,WNW,295,2.2,3.5,61,0.00,CLR,,0.00,WeatherDisplay:10.37,2013-02-11 05:12:00,
2013-02-10 23:17:00,31.8,19.9,30.03,WSW,253,2.2,3.5,61,0.00,CLR,,0.00,WeatherDisplay:10.37,2013-02-11 05:17:00,
2013-02-10 23:22:00,31.1,19.2,30.03,West,266,2.7,3.5,61,0.00,CLR,,0.00,WeatherDisplay:10.37,2013-02-11 05:22:00,
2013-02-10 23:27:00,30.6,19.1,30.03,WSW,250,2.7,3.5,62,0.00,CLR,,0.00,WeatherDisplay:10.37,2013-02-11 05:27:00,
2013-02-10 23:32:00,30.2,18.7,30.03,WSW,254,0.0,3.5,62,0.00,CLR,,0.00,WeatherDisplay:10.37,2013-02-11 05:32:00,
2013-02-10 23:37:00,29.8,18.4,30.03,West,262,0.0,3.5,62,0.00,CLR,,0.00,WeatherDisplay:10.37,2013-02-11 05:37:00,
2013-02-10 23:42:00,29.8,18.4,30.03,WSW,255,3.1,4.6,62,0.00,CLR,,0.00,WeatherDisplay:10.37,2013-02-11 05:42:00,
2013-02-10 23:47:00,29.8,18.4,30.03,West,271,3.6,4.6,62,0.00,CLR,,0.00,WeatherDisplay:10.37,2013-02-11 05:47:00,
2013-02-10 23:52:00,29.8,18.8,30.03,West,267,4.9,5.8,63,0.00,CLR,,0.00,WeatherDisplay:10.37,2013-02-11 05:52:00,
2013-02-10 23:57:00,30.6,19.5,30.03,WNW,288,4.5,5.4,63,0.00,CLR,,0.00,WeatherDisplay:10.37,2013-02-11 05:57:00,